Time;durP1;ratioP1;P1;durP2;ratioP2;P2;SDS_P1;SDS_P2;PMS_P1;PMS_P2;Temp;Humidity;BMP_temperature;BMP_pressure;BME280_temperature;BME280_humidity;BME280_pressure;Samples;Min_cycle;Max_cycle;Signal;HPM_P1;HPM_P2
2022/08/22 00:01:42;;;;;;;9.48;4.40;;;;;;;18.43;68.81;99905.41;5030127;28;20121;-79
2022/08/22 00:04:20;;;;;;;9.85;5.30;;;;;;;18.35;69.15;99906.97;5031981;28;20037;-84
2022/08/22 00:07:03;;;;;;;8.35;4.30;;;;;;;18.37;69.22;99901.13;5032997;28;20125;-84
2022/08/22 00:09:53;;;;;;;8.23;4.80;;;;;;;18.30;69.52;99896.09;5044903;28;20041;-84
2022/08/22 00:12:31;;;;;;;10.07;5.03;;;;;;;18.31;69.34;99903.22;5036766;28;20037;-84
2022/08/22 00:15:13;;;;;;;8.00;3.80;;;;;;;18.27;69.71;99903.03;5018953;28;20132;-84
2022/08/22 00:18:00;;;;;;;13.25;4.63;;;;;;;18.26;69.57;99903.34;5036436;28;20041;-86
2022/08/22 00:20:34;;;;;;;10.10;4.93;;;;;;;18.22;69.79;99900.41;5053466;28;20044;-85
2022/08/22 00:23:11;;;;;;;12.23;5.10;;;;;;;18.19;69.55;99903.78;5056722;28;20041;-84
2022/08/22 00:26:00;;;;;;;12.38;5.03;;;;;;;18.17;70.09;99904.09;5054548;28;20040;-84
2022/08/22 00:28:43;;;;;;;17.02;4.07;;;;;;;18.19;69.89;99901.84;5054295;28;20052;-86
2022/08/22 00:31:20;;;;;;;10.15;4.88;;;;;;;18.15;70.05;99905.50;5035684;28;20037;-86
2022/08/22 00:33:52;;;;;;;12.52;5.38;;;;;;;18.15;69.96;99908.25;5035471;28;20038;-85
2022/08/22 00:36:28;;;;;;;10.48;5.00;;;;;;;18.07;70.78;99909.84;5036141;28;20140;-84
2022/08/22 00:39:36;;;;;;;6.45;4.03;;;;;;;18.05;70.81;99904.63;5046152;28;20101;-81
2022/08/22 00:42:20;;;;;;;11.85;5.05;;;;;;;18.06;70.56;99909.00;5053690;28;20033;-80
2022/08/22 00:45:19;;;;;;;10.70;4.13;;;;;;;18.06;70.52;99909.00;5052947;28;20551;-78
2022/08/22 00:48:34;;;;;;;9.23;4.20;;;;;;;17.99;70.90;99908.63;5045447;28;20073;-78
2022/08/22 00:51:40;;;;;;;7.70;4.35;;;;;;;17.89;71.31;99904.19;5051632;28;20045;-78
2022/08/22 00:54:38;;;;;;;16.15;4.88;;;;;;;17.86;71.77;99904.78;5031505;28;20994;-84
2022/08/22 00:57:12;;;;;;;13.15;5.15;;;;;;;17.80;71.78;99912.38;5054631;28;20061;-84
2022/08/22 01:00:03;;;;;;;8.98;5.07;;;;;;;17.74;72.01;99906.16;5042379;28;20045;-81
2022/08/22 01:02:42;;;;;;;12.25;5.85;;;;;;;17.73;71.95;99906.47;5033602;28;20124;-81
2022/08/22 01:05:43;;;;;;;13.90;5.60;;;;;;;17.72;72.74;99913.91;5033309;28;20491;-81
2022/08/22 01:08:17;;;;;;;10.70;4.82;;;;;;;17.77;72.49;99901.97;5033963;28;20480;-83
2022/08/22 01:10:55;;;;;;;9.55;4.95;;;;;;;17.73;72.83;99903.72;5052472;28;20076;-84
2022/08/22 01:13:38;;;;;;;10.45;4.78;;;;;;;17.65;72.58;99902.50;5055702;28;20040;-86
2022/08/22 01:16:30;;;;;;;7.90;3.97;;;;;;;17.66;73.20;99897.78;5055176;28;20391;-86
2022/08/22 01:19:06;;;;;;;12.27;4.68;;;;;;;17.69;73.07;99899.94;5052613;28;20059;-81
2022/08/22 01:22:18;;;;;;;11.95;4.97;;;;;;;17.72;72.64;99893.78;5052163;28;20041;-81
2022/08/22 01:25:20;;;;;;;11.75;5.38;;;;;;;17.65;73.05;99894.25;5051732;28;20064;-79
2022/08/22 01:27:58;;;;;;;14.02;4.95;;;;;;;17.51;73.41;99894.28;5052041;28;20395;-79
2022/08/22 01:30:45;;;;;;;11.95;5.28;;;;;;;17.53;74.09;99897.53;5050348;28;20045;-79
2022/08/22 01:33:29;;;;;;;9.95;5.63;;;;;;;17.52;73.94;99895.88;5052349;28;20045;-87
2022/08/22 01:36:00;;;;;;;10.07;5.35;;;;;;;17.50;74.14;99892.63;5037646;28;20087;-86
2022/08/22 01:38:57;;;;;;;14.20;6.05;;;;;;;17.42;74.15;99890.59;5053450;28;20048;-77
2022/08/22 01:41:34;;;;;;;13.02;4.70;;;;;;;17.34;74.09;99889.38;5030523;28;20400;-79
2022/08/22 01:44:20;;;;;;;11.60;5.32;;;;;;;17.34;74.56;99890.19;5033418;28;20060;-86
2022/08/22 01:46:57;;;;;;;10.38;5.15;;;;;;;17.34;75.24;99895.72;5041245;28;20037;-86
2022/08/22 01:49:28;;;;;;;10.07;5.20;;;;;;;17.33;75.21;99893.28;5050266;28;20064;-78
2022/08/22 01:52:09;;;;;;;10.63;5.72;;;;;;;17.29;75.23;99886.75;5050470;28;20103;-78
2022/08/22 01:54:53;;;;;;;14.60;5.80;;;;;;;17.29;75.33;99893.03;5053467;28;20044;-86
2022/08/22 01:57:20;;;;;;;14.70;6.32;;;;;;;17.41;74.48;99892.53;5051736;28;20040;-86
2022/08/22 01:59:51;;;;;;;10.80;5.72;;;;;;;17.41;74.64;99891.72;5049545;28;20099;-79
2022/08/22 02:02:35;;;;;;;14.45;5.78;;;;;;;17.37;74.70;99895.09;5050382;28;20028;-79
2022/08/22 02:05:21;;;;;;;14.50;5.47;;;;;;;17.29;75.13;99897.75;5051852;28;20065;-81
2022/08/22 02:07:55;;;;;;;9.90;5.50;;;;;;;17.27;75.44;99895.28;5052465;28;20506;-83
2022/08/22 02:10:52;;;;;;;12.48;5.82;;;;;;;17.17;75.70;99892.78;5052420;28;20131;-83
2022/08/22 02:13:22;;;;;;;13.25;5.53;;;;;;;17.14;75.95;99895.00;5053917;28;20496;-81
2022/08/22 02:15:54;;;;;;;10.63;6.72;;;;;;;17.11;76.02;99895.56;5052057;28;20048;-81
2022/08/22 02:18:28;;;;;;;12.75;5.90;;;;;;;17.06;76.43;99892.94;5032951;28;20247;-79
2022/08/22 02:20:57;;;;;;;10.52;6.07;;;;;;;17.17;76.21;99895.53;5049554;28;20040;-79
2022/08/22 02:23:52;;;;;;;9.63;6.15;;;;;;;17.17;76.05;99901.03;5051530;28;20037;-86
2022/08/22 02:26:24;;;;;;;24.50;9.02;;;;;;;17.12;76.44;99894.50;5051218;28;20124;-86
2022/08/22 02:29:09;;;;;;;13.60;6.45;;;;;;;17.04;76.57;99892.44;5050245;28;20048;-81
2022/08/22 02:31:56;;;;;;;14.27;7.60;;;;;;;16.98;77.00;99888.13;5050036;28;20037;-79
2022/08/22 02:34:33;;;;;;;17.27;6.90;;;;;;;17.01;76.86;99888.34;5050991;28;20436;-81
2022/08/22 02:37:12;;;;;;;13.45;6.93;;;;;;;17.01;76.67;99882.84;5052433;28;20053;-81
2022/08/22 02:39:51;;;;;;;14.55;7.18;;;;;;;16.96;76.45;99890.38;5044494;28;20120;-84
2022/08/22 02:42:27;;;;;;;12.98;6.80;;;;;;;16.92;76.82;99890.97;5034187;28;20433;-83
2022/08/22 02:45:31;;;;;;;11.02;7.03;;;;;;;16.89;76.78;99886.09;5032122;28;20121;-81
2022/08/22 02:48:02;;;;;;;12.63;6.70;;;;;;;16.89;76.76;99880.59;5052098;28;20494;-84
2022/08/22 02:50:46;;;;;;;18.40;8.00;;;;;;;16.82;77.21;99888.41;5038212;28;20049;-84
2022/08/22 02:53:19;;;;;;;;;;;;;;;16.80;76.98;99882.41;5033376;28;20064;-80
2022/08/22 02:55:52;;;;;;;12.55;6.80;;;;;;;16.75;77.13;99877.00;5032037;28;19917;-80
2022/08/22 02:58:49;;;;;;;14.77;6.40;;;;;;;16.72;77.72;99874.88;5031075;28;20029;-80
2022/08/22 03:01:39;;;;;;;9.82;6.03;;;;;;;16.74;77.59;99872.63;5013138;28;20115;-81
2022/08/22 03:04:31;;;;;;;13.10;5.95;;;;;;;16.68;77.79;99867.19;5031069;28;20044;-81
2022/08/22 03:06:57;;;;;;;9.50;5.90;;;;;;;16.69;77.88;99865.28;5033456;28;20060;-86
2022/08/22 03:09:28;;;;;;;12.47;7.23;;;;;;;16.67;78.00;99862.00;5041905;28;20060;-86
2022/08/22 03:12:27;;;;;;;17.25;8.77;;;;;;;16.66;78.16;99872.19;5049927;28;20051;-78
2022/08/22 03:15:05;;;;;;;16.25;6.80;;;;;;;16.74;77.86;99865.16;5050330;28;20032;-83
2022/08/22 03:17:39;;;;;;;13.82;6.68;;;;;;;16.80;77.80;99863.16;5041248;28;20043;-84
2022/08/22 03:20:12;;;;;;;10.43;7.10;;;;;;;16.73;77.87;99865.47;5056507;28;20125;-84
2022/08/22 03:22:48;;;;;;;14.57;5.78;;;;;;;16.67;78.09;99862.81;5035379;28;20044;-83
2022/08/22 03:25:25;;;;;;;10.55;6.88;;;;;;;16.67;77.89;99862.81;5052169;28;20060;-78
2022/08/22 03:27:59;;;;;;;12.85;6.32;;;;;;;16.62;78.17;99857.41;5049217;28;20395;-78
2022/08/22 03:30:43;;;;;;;;;;;;;;;16.60;78.25;99856.88;5049369;28;20048;-86
2022/08/22 03:33:18;;;;;;;11.20;7.45;;;;;;;16.52;78.30;99855.66;5032806;28;19956;-86
2022/08/22 03:35:43;;;;;;;15.77;6.82;;;;;;;16.49;79.00;99856.28;5033467;28;20576;-84
2022/08/22 03:38:15;;;;;;;12.20;6.50;;;;;;;16.60;79.25;99856.88;5033096;28;20049;-84
2022/08/22 03:41:18;;;;;;;15.27;7.07;;;;;;;16.67;78.90;99862.81;5050463;28;20403;-84
2022/08/22 03:44:17;;;;;;;10.60;7.30;;;;;;;16.59;78.60;99849.75;5055253;28;20033;-84
2022/08/22 03:46:55;;;;;;;11.65;6.63;;;;;;;16.53;79.19;99857.31;5039726;28;20049;-86
2022/08/22 03:49:26;;;;;;;10.13;6.35;;;;;;;16.43;78.82;99846.47;5056015;28;20056;-86
2022/08/22 03:52:09;;;;;;;13.52;6.03;;;;;;;16.28;79.55;99847.53;5055243;28;20041;-81
2022/08/22 03:55:03;;;;;;;12.70;6.60;;;;;;;16.34;79.23;99858.16;5054815;28;20041;-82
2022/08/22 03:57:58;;;;;;;10.60;6.45;;;;;;;16.33;79.72;99845.53;5039357;28;20261;-83
2022/08/22 04:00:42;;;;;;;;;;;;;;;16.40;79.44;99845.13;5003323;28;20464;-83
2022/08/22 04:03:45;;;;;;;11.10;6.97;;;;;;;16.48;79.31;99845.53;5056393;28;19912;-83
2022/08/22 04:06:22;;;;;;;19.80;7.95;;;;;;;16.49;78.64;99849.94;5054037;28;20041;-78
2022/08/22 04:09:29;;;;;;;9.38;6.35;;;;;;;16.43;78.90;99850.03;5033218;28;20049;-78
2022/08/22 04:12:21;;;;;;;11.40;6.78;;;;;;;16.33;79.19;99847.47;5053175;28;20048;-79
2022/08/22 04:14:46;;;;;;;14.75;6.65;;;;;;;16.30;79.47;99854.38;5053138;28;20040;-86
2022/08/22 04:17:41;;;;;;;14.33;6.43;;;;;;;16.26;79.42;99853.34;5058264;28;20037;-86
2022/08/22 04:20:40;;;;;;;12.02;6.57;;;;;;;16.28;78.88;99855.81;5059459;28;20150;-86
2022/08/22 04:23:25;;;;;;;16.92;7.15;;;;;;;16.19;79.33;99859.22;5056206;28;20186;-86
2022/08/22 04:25:58;;;;;;;12.20;6.95;;;;;;;16.14;79.75;99853.84;5054146;28;20060;-83
2022/08/22 04:28:31;;;;;;;11.30;6.88;;;;;;;16.18;79.69;99860.38;5055268;28;20049;-84
2022/08/22 04:31:10;;;;;;;14.90;9.88;;;;;;;16.30;80.28;99854.38;5054976;28;20041;-86
2022/08/22 04:33:45;;;;;;;22.45;9.68;;;;;;;16.40;80.23;99858.91;5055662;28;20052;-86
2022/08/22 04:36:20;;;;;;;14.02;8.35;;;;;;;16.48;79.94;99859.31;5055569;28;20465;-83
2022/08/22 04:38:58;;;;;;;16.33;8.48;;;;;;;16.52;79.05;99855.66;5036989;28;20548;-83
2022/08/22 04:41:51;;;;;;;11.35;7.40;;;;;;;16.56;79.37;99847.59;5035977;28;20041;-86
2022/08/22 04:44:31;;;;;;;16.83;8.48;;;;;;;16.54;79.60;99852.59;5036228;28;20072;-86
2022/08/22 04:46:59;;;;;;;24.63;9.25;;;;;;;16.59;79.67;99852.50;5043900;28;20045;-86
2022/08/22 04:49:34;;;;;;;15.93;8.50;;;;;;;16.74;79.43;99861.63;5054466;28;20033;-86
2022/08/22 04:52:17;;;;;;;17.30;7.75;;;;;;;16.83;79.46;99862.53;5055546;28;20041;-83
2022/08/22 04:55:16;;;;;;;14.98;8.05;;;;;;;16.92;79.42;99855.19;5036875;28;20499;-83
2022/08/22 04:57:53;;;;;;;18.65;9.40;;;;;;;16.96;79.42;99849.06;5052401;28;20047;-79
2022/08/22 05:00:18;;;;;;;13.10;7.53;;;;;;;17.06;79.28;99850.81;5052325;28;20106;-86
2022/08/22 05:02:54;;;;;;;11.48;8.52;;;;;;;17.13;79.00;99857.56;5055744;28;20033;-86
2022/08/22 05:05:25;;;;;;;17.08;7.35;;;;;;;17.20;78.34;99856.34;5056126;28;20090;-85
2022/08/22 05:07:56;;;;;;;15.75;7.97;;;;;;;17.26;78.20;99852.34;5056054;28;20041;-85
2022/08/22 05:10:31;;;;;;;13.48;7.78;;;;;;;17.33;77.78;99855.50;5052753;28;20040;-83
2022/08/22 05:13:02;;;;;;;15.75;8.68;;;;;;;17.34;77.71;99867.34;5037635;28;20559;-83
2022/08/22 05:15:33;;;;;;;13.82;7.88;;;;;;;17.44;77.33;99863.53;5055383;28;20392;-82
2022/08/22 05:18:12;;;;;;;11.23;7.30;;;;;;;17.50;77.42;99859.56;5054545;28;20033;-83
2022/08/22 05:20:43;;;;;;;15.68;7.43;;;;;;;17.56;76.87;99858.31;5051062;28;20036;-77
2022/08/22 05:23:30;;;;;;;14.73;6.40;;;;;;;17.62;76.26;99867.28;5051219;28;20052;-78
2022/08/22 05:26:00;;;;;;;10.35;7.50;;;;;;;17.73;76.09;99870.63;5052200;28;20091;-84
2022/08/22 05:28:34;;;;;;;11.15;6.18;;;;;;;17.77;75.86;99868.88;5036510;28;20064;-85
2022/08/22 05:31:05;;;;;;;13.60;7.63;;;;;;;17.85;75.93;99870.91;5034380;28;20107;-79
2022/08/22 05:33:39;;;;;;;11.52;6.75;;;;;;;17.92;75.69;99869.66;5031926;28;20481;-79
2022/08/22 05:36:10;;;;;;;;;;;;;;;17.99;74.99;99881.06;5034220;28;20455;-86
2022/08/22 05:38:53;;;;;;;9.90;6.25;;;;;;;18.03;74.54;99870.22;5037900;28;19940;-86
2022/08/22 05:41:24;;;;;;;13.95;7.07;;;;;;;18.09;74.19;99867.03;5017951;28;20037;-86
2022/08/22 05:43:51;;;;;;;13.77;7.80;;;;;;;18.14;74.42;99881.81;5017728;28;20234;-87
2022/08/22 05:46:35;;;;;;;13.20;7.57;;;;;;;18.19;75.00;99874.25;5037607;28;20042;-87
2022/08/22 05:49:02;;;;;;;14.10;6.50;;;;;;;18.19;73.09;99870.69;5052042;28;20037;-85
2022/08/22 05:52:00;;;;;;;10.80;7.40;;;;;;;18.27;74.09;99869.09;5051374;28;20673;-77
2022/08/22 05:54:32;;;;;;;12.95;7.15;;;;;;;18.30;72.84;99880.34;4995381;28;20538;-78
2022/08/22 05:57:17;;;;;;;11.85;7.10;;;;;;;18.41;72.42;99882.81;5050790;28;20377;-77
2022/08/22 05:59:47;;;;;;;13.43;6.63;;;;;;;18.48;72.71;99874.94;5048322;28;20076;-77
2022/08/22 06:02:25;;;;;;;14.52;7.10;;;;;;;18.45;72.90;99874.75;5041864;28;20052;-85
2022/08/22 06:04:58;;;;;;;12.35;6.55;;;;;;;18.57;73.35;99877.72;5054188;28;20530;-82
2022/08/22 06:07:37;;;;;;;9.85;6.18;;;;;;;18.74;72.99;99879.78;5053578;28;20045;-82
2022/08/22 06:10:16;;;;;;;10.98;7.35;;;;;;;18.75;72.68;99886.91;5048922;28;20037;-77
2022/08/22 06:12:59;;;;;;;15.63;6.43;;;;;;;18.74;72.32;99881.72;5050547;28;20391;-77
2022/08/22 06:15:47;;;;;;;14.77;7.63;;;;;;;18.77;71.69;99887.41;5033742;28;20041;-86
2022/08/22 06:18:16;;;;;;;15.13;7.18;;;;;;;18.91;71.89;99880.97;5053964;28;20473;-87
2022/08/22 06:20:44;;;;;;;17.10;7.68;;;;;;;18.94;71.33;99885.84;5052022;28;20094;-76
2022/08/22 06:23:16;;;;;;;9.77;6.63;;;;;;;18.98;71.99;99884.09;5050236;28;20045;-76
2022/08/22 06:25:45;;;;;;;13.93;5.70;;;;;;;19.04;72.01;99884.75;5049919;28;20124;-77
2022/08/22 06:28:16;;;;;;;13.13;7.75;;;;;;;19.13;71.62;99887.56;5049614;28;20044;-76
2022/08/22 06:30:44;;;;;;;9.50;6.63;;;;;;;19.08;71.44;99882.19;5032493;28;20059;-87
2022/08/22 06:33:15;;;;;;;16.60;9.07;;;;;;;19.06;72.49;99889.97;5043782;28;20098;-87
2022/08/22 06:39:02;;;;;;;14.23;7.20;;;;;;;19.15;73.28;99901.06;5050610;28;20041;-85
2022/08/22 06:41:31;;;;;;;12.27;6.03;;;;;;;19.25;72.46;99907.13;5018420;28;20544;-88
2022/08/22 06:43:59;;;;;;;15.93;7.32;;;;;;;19.30;72.10;99902.59;5034008;28;20037;-88
2022/08/22 06:46:27;;;;;;;13.35;6.47;;;;;;;19.22;72.09;99905.00;5037295;28;20472;-87
2022/08/22 06:48:55;;;;;;;12.40;6.63;;;;;;;19.25;72.31;99907.13;5051617;28;21098;-87
2022/08/22 06:51:22;;;;;;;11.13;5.68;;;;;;;19.35;72.88;99896.91;5054292;28;20036;-87
2022/08/22 06:53:52;;;;;;;13.48;6.90;;;;;;;19.44;72.61;99903.28;5053946;28;20032;-87
2022/08/22 06:56:28;;;;;;;13.05;6.55;;;;;;;19.50;71.45;99908.66;5052089;28;20044;-80
2022/08/22 06:58:58;;;;;;;10.55;6.28;;;;;;;19.61;71.68;99907.19;5049870;28;20045;-81
2022/08/22 07:01:29;;;;;;;11.38;6.63;;;;;;;19.64;72.02;99912.09;5052405;28;20028;-79
2022/08/22 07:04:01;;;;;;;11.52;6.07;;;;;;;19.80;71.74;99908.84;5052103;28;20052;-80
2022/08/22 07:06:49;;;;;;;13.18;6.75;;;;;;;19.88;70.90;99899.75;5053413;28;20044;-84
2022/08/22 07:09:21;;;;;;;14.55;7.55;;;;;;;19.96;70.99;99895.34;5049577;28;20048;-84
2022/08/22 07:11:47;;;;;;;16.75;7.00;;;;;;;19.95;69.05;99894.53;5050770;28;20033;-77
2022/08/22 07:14:15;;;;;;;15.07;6.57;;;;;;;19.89;69.50;99901.38;5049500;28;20091;-77
2022/08/22 07:16:55;;;;;;;11.32;6.97;;;;;;;19.87;69.08;99909.19;5049198;28;20037;-77
2022/08/22 07:19:27;;;;;;;8.98;5.60;;;;;;;19.62;69.44;99897.78;5060532;28;20071;-77
2022/08/22 07:21:54;;;;;;;10.77;5.93;;;;;;;19.91;69.11;99888.03;5056056;28;20037;-81
2022/08/22 07:24:24;;;;;;;14.60;6.53;;;;;;;20.05;68.97;99892.59;5056214;28;20677;-81
2022/08/22 07:27:08;;;;;;;10.98;5.53;;;;;;;20.08;68.83;99891.97;5053098;28;20635;-77
2022/08/22 07:29:46;;;;;;;15.65;7.93;;;;;;;20.20;67.82;99898.81;5051297;28;20056;-77
2022/08/22 07:32:27;;;;;;;14.35;7.07;;;;;;;20.18;67.26;99902.69;5053229;28;20043;-78
2022/08/22 07:35:22;;;;;;;10.93;6.05;;;;;;;20.18;67.53;99902.69;5053830;28;20037;-80
2022/08/22 07:38:18;;;;;;;14.93;7.65;;;;;;;20.20;67.10;99901.56;5055437;28;20040;-80
2022/08/22 07:41:10;;;;;;;11.68;5.85;;;;;;;20.08;67.73;99897.50;5054500;28;20045;-81
2022/08/22 07:43:47;;;;;;;15.27;6.07;;;;;;;20.11;68.02;99901.56;5055626;28;20071;-80
2022/08/22 07:46:28;;;;;;;11.20;5.15;;;;;;;20.24;67.08;99902.56;5055485;28;20047;-81
2022/08/22 07:49:02;;;;;;;10.82;5.25;;;;;;;20.23;68.01;99901.72;5049345;28;20071;-80
2022/08/22 07:51:41;;;;;;;12.60;5.75;;;;;;;20.15;66.79;99897.00;5056911;28;20033;-84
2022/08/22 07:54:10;;;;;;;12.68;5.55;;;;;;;20.22;67.63;99897.31;5057391;28;20064;-85
2022/08/22 07:56:41;;;;;;;16.50;7.20;;;;;;;20.48;67.32;99903.97;5056906;28;20123;-85
2022/08/22 07:59:15;;;;;;;11.32;7.93;;;;;;;20.57;67.15;99902.00;5055325;28;20041;-85
2022/08/22 08:01:54;;;;;;;15.65;7.40;;;;;;;20.55;66.09;99904.28;5039365;28;20033;-85
2022/08/22 08:04:31;;;;;;;10.68;5.70;;;;;;;20.51;66.94;99914.38;5056319;28;20041;-85
2022/08/22 08:07:00;;;;;;;13.88;6.45;;;;;;;20.72;66.04;99908.16;5056860;28;20037;-87
2022/08/22 08:09:29;;;;;;;14.90;5.65;;;;;;;20.77;65.18;99908.78;5056282;28;20110;-87
2022/08/22 08:11:56;;;;;;;26.30;8.30;;;;;;;20.93;64.93;99907.44;5056662;28;20071;-87
2022/08/22 08:14:24;;;;;;;25.48;9.27;;;;;;;21.02;64.49;99911.00;5056520;28;20033;-86
2022/08/22 08:17:00;;;;;;;13.63;6.28;;;;;;;21.02;64.31;99905.44;5056064;28;20501;-85
2022/08/22 08:19:33;;;;;;;11.90;5.57;;;;;;;21.09;65.24;99902.16;5051240;28;20488;-85
2022/08/22 08:21:59;;;;;;;19.17;6.53;;;;;;;21.02;63.81;99899.91;5055931;28;20033;-85
2022/08/22 08:24:29;;;;;;;18.98;7.15;;;;;;;21.01;65.02;99898.31;5038381;28;20476;-86
2022/08/22 08:29:57;;;;;;;12.98;6.55;;;;;;;21.39;63.27;99899.41;5052789;28;20754;-86
2022/08/22 08:32:26;;;;;;;21.70;6.47;;;;;;;21.42;63.04;99895.94;5055862;28;20472;-86
2022/08/22 08:34:52;;;;;;;11.20;6.55;;;;;;;21.53;63.00;99888.06;5055327;28;20044;-85
2022/08/22 08:37:35;;;;;;;13.35;6.18;;;;;;;21.53;62.51;99885.28;5056292;28;20120;-86
2022/08/22 08:40:11;;;;;;;15.10;6.27;;;;;;;21.45;63.24;99877.84;5044077;28;20072;-85
2022/08/22 08:46:09;;;;;;;13.13;6.00;;;;;;;21.37;62.56;99875.94;5043057;28;20048;-86
2022/08/22 08:48:57;;;;;;;11.45;5.50;;;;;;;21.49;62.29;99873.25;5055082;28;20045;-85
2022/08/22 08:51:41;;;;;;;9.05;4.88;;;;;;;21.49;61.68;99867.69;5035830;28;20052;-85
2022/08/22 08:54:15;;;;;;;10.70;5.50;;;;;;;21.40;59.03;99867.75;5051160;28;20111;-87
2022/08/22 08:57:03;;;;;;;9.52;5.00;;;;;;;21.54;59.08;99870.25;5056084;28;20044;-86
2022/08/22 08:59:47;;;;;;;19.60;6.10;;;;;;;21.72;58.22;99859.06;5053582;28;20033;-85
2022/08/22 09:02:19;;;;;;;10.88;4.32;;;;;;;21.83;59.37;99853.09;5056018;28;20048;-85
2022/08/22 09:05:25;;;;;;;9.85;4.82;;;;;;;21.93;57.85;99852.69;5055523;28;20495;-87
2022/08/22 09:08:34;;;;;;;8.48;4.13;;;;;;;22.06;59.25;99849.97;5055726;28;20055;-90
2022/08/22 09:11:39;;;;;;;14.05;5.38;;;;;;;22.11;57.08;99850.56;4974824;28;20074;-90
2022/08/22 09:14:31;;;;;;;11.32;4.07;;;;;;;22.30;55.91;99856.75;4955013;28;20113;-87
2022/08/22 09:17:20;;;;;;;8.52;3.60;;;;;;;22.25;57.50;99843.91;5047791;28;20057;-87
2022/08/22 09:20:23;;;;;;;8.18;3.80;;;;;;;22.54;55.13;99846.88;5054256;28;20055;-88
2022/08/22 09:23:26;;;;;;;9.48;3.72;;;;;;;22.44;56.15;99839.75;5055345;28;20036;-87
2022/08/22 09:26:16;;;;;;;9.20;3.50;;;;;;;22.45;55.12;99839.44;5053351;28;20045;-87
2022/08/22 09:28:52;;;;;;;10.88;3.38;;;;;;;22.59;55.20;99849.41;5054916;28;20056;-87
2022/08/22 09:31:50;;;;;;;16.08;4.28;;;;;;;22.48;54.99;99835.97;5055426;28;20051;-88
2022/08/22 09:34:36;;;;;;;5.72;2.92;;;;;;;22.57;53.08;99835.06;5054896;28;20076;-88
2022/08/22 09:37:30;;;;;;;6.50;3.22;;;;;;;22.58;53.22;99831.94;5054356;28;20124;-88
2022/08/22 09:40:07;;;;;;;8.98;2.90;;;;;;;22.62;52.33;99826.47;5053903;28;20040;-88
2022/08/22 09:42:48;;;;;;;5.53;2.90;;;;;;;22.59;53.98;99822.44;5054342;28;20048;-88
2022/08/22 09:45:39;;;;;;;6.10;2.47;;;;;;;22.65;52.44;99825.00;5054676;28;20495;-89
2022/08/22 09:48:37;;;;;;;5.43;1.58;;;;;;;22.81;49.19;99817.63;5054015;28;20128;-89
2022/08/22 09:51:14;;;;;;;4.57;1.50;;;;;;;22.90;49.79;99820.28;5020273;28;20045;-88
2022/08/22 09:54:02;;;;;;;6.50;2.33;;;;;;;22.84;50.61;99811.34;5034651;28;20044;-86
2022/08/22 09:56:35;;;;;;;5.05;1.95;;;;;;;22.90;50.36;99809.19;5005965;28;20091;-87
2022/08/22 09:59:10;;;;;;;4.45;2.13;;;;;;;23.02;48.79;99811.13;5040725;28;20033;-87
2022/08/22 10:01:51;;;;;;;6.60;2.40;;;;;;;23.11;49.85;99808.22;5054403;28;20041;-87
2022/08/22 10:04:44;;;;;;;6.30;2.30;;;;;;;23.20;50.36;99808.09;5054078;28;20036;-87
2022/08/22 10:07:30;;;;;;;8.07;2.27;;;;;;;23.21;50.58;99804.97;5053885;28;20052;-85
2022/08/22 10:10:04;;;;;;;7.28;2.28;;;;;;;23.34;50.24;99799.38;5053152;28;20152;-85
2022/08/22 10:12:41;;;;;;;10.70;3.38;;;;;;;23.30;50.76;99809.59;5036075;28;20106;-84
2022/08/22 10:15:41;;;;;;;9.70;3.78;;;;;;;23.44;49.85;99796.13;5053891;28;20033;-81
2022/08/22 10:18:17;;;;;;;7.60;2.90;;;;;;;23.32;50.24;99796.94;5029280;28;20492;-81
2022/08/22 10:20:48;;;;;;;6.10;3.33;;;;;;;23.54;50.76;99796.78;5033848;28;20045;-83
2022/08/22 10:23:20;;;;;;;8.73;2.95;;;;;;;23.90;49.60;99792.25;5032342;28;20388;-82
2022/08/22 10:25:52;;;;;;;9.70;2.72;;;;;;;23.98;49.14;99789.66;5031078;28;20057;-82
2022/08/22 10:28:26;;;;;;;7.85;2.63;;;;;;;23.80;47.52;99798.31;5014521;28;20041;-82
2022/08/22 10:31:03;;;;;;;6.88;2.75;;;;;;;23.72;49.22;99790.91;5051741;28;20044;-81
2022/08/22 10:33:46;;;;;;;4.38;2.05;;;;;;;23.66;49.67;99799.53;5052434;28;20071;-82
2022/08/22 10:37:00;;;;;;;6.68;2.35;;;;;;;23.89;48.03;99793.41;5052711;28;20041;-82
2022/08/22 10:39:42;;;;;;;8.85;2.30;;;;;;;23.76;49.19;99791.84;5027758;28;20037;-81
2022/08/22 10:42:27;;;;;;;4.47;2.33;;;;;;;23.87;48.14;99789.38;5052446;28;20068;-83
2022/08/22 10:45:23;;;;;;;8.27;2.28;;;;;;;23.79;48.59;99782.78;5052670;28;20033;-82
2022/08/22 10:47:52;;;;;;;6.07;2.22;;;;;;;23.85;48.22;99786.94;5052666;28;20086;-83
2022/08/22 10:50:20;;;;;;;5.30;3.10;;;;;;;23.78;48.62;99779.19;5053675;28;20049;-82
2022/08/22 10:52:48;;;;;;;8.30;3.10;;;;;;;23.78;49.58;99778.38;5051779;28;20489;-83
2022/08/22 10:55:24;;;;;;;7.45;2.92;;;;;;;24.20;47.79;99776.31;5051946;28;20060;-84
2022/08/22 10:58:03;;;;;;;9.15;3.13;;;;;;;24.26;46.58;99774.91;5034888;28;20407;-83
2022/08/22 11:00:48;;;;;;;9.45;2.97;;;;;;;24.29;48.34;99774.19;5032223;28;20052;-83
2022/08/22 11:04:01;;;;;;;8.85;2.63;;;;;;;24.63;47.29;99773.84;5050890;28;20091;-83
2022/08/22 11:06:36;;;;;;;4.27;2.30;;;;;;;24.58;47.22;99774.09;5030400;28;20072;-83
2022/08/22 11:09:21;;;;;;;6.93;2.67;;;;;;;24.45;46.10;99778.97;5049131;28;20040;-81
2022/08/22 11:12:18;;;;;;;7.68;3.42;;;;;;;24.31;47.95;99777.41;5015024;28;20076;-83
2022/08/22 11:15:11;;;;;;;4.55;2.20;;;;;;;24.30;47.33;99767.47;5032306;28;20121;-83
2022/08/22 11:18:07;;;;;;;8.20;2.33;;;;;;;24.50;46.25;99764.75;5034332;28;20054;-82
2022/08/22 11:20:59;;;;;;;6.05;2.55;;;;;;;24.51;46.07;99763.56;5035954;28;20328;-82
2022/08/22 11:23:31;;;;;;;5.70;2.80;;;;;;;24.70;45.30;99762.03;5032630;28;20044;-83
2022/08/22 11:26:25;;;;;;;3.80;2.30;;;;;;;25.23;44.42;99763.63;5032512;28;20524;-83
2022/08/22 11:29:13;;;;;;;6.90;3.03;;;;;;;25.23;44.84;99752.47;5002650;28;20099;-83
2022/08/22 11:31:46;;;;;;;6.20;2.60;;;;;;;25.04;45.20;99748.50;5051872;28;20041;-83
2022/08/22 11:34:44;;;;;;;6.18;2.97;;;;;;;24.95;45.55;99754.28;5051357;28;20120;-84
2022/08/22 11:37:25;;;;;;;4.28;1.90;;;;;;;24.93;45.96;99753.00;5036191;28;20530;-83
2022/08/22 11:40:11;;;;;;;4.03;2.70;;;;;;;25.12;45.38;99749.44;5049438;28;20049;-83
2022/08/22 11:42:44;;;;;;;14.25;3.33;;;;;;;25.27;45.52;99739.41;5050342;28;20044;-83
2022/08/22 11:45:22;;;;;;;4.63;2.55;;;;;;;25.19;45.85;99746.03;5051530;28;20037;-82
2022/08/22 11:48:14;;;;;;;7.07;2.58;;;;;;;25.10;45.68;99742.66;5047305;28;20135;-83
2022/08/22 11:50:44;;;;;;;4.47;2.28;;;;;;;25.01;45.37;99740.88;5033491;28;20114;-81
2022/08/22 11:53:37;;;;;;;6.75;2.53;;;;;;;24.99;45.02;99740.44;5051787;28;20037;-83
2022/08/22 11:56:23;;;;;;;3.72;2.40;;;;;;;25.09;46.07;99733.47;5052064;28;20033;-84
2022/08/22 11:59:01;;;;;;;7.40;3.20;;;;;;;25.26;44.82;99732.22;5036301;28;20080;-82
2022/08/22 12:01:41;;;;;;;5.07;2.15;;;;;;;25.06;45.30;99737.78;5051939;28;20041;-83
2022/08/22 12:04:38;;;;;;;8.57;2.80;;;;;;;25.17;46.02;99728.84;5052664;28;20081;-83
2022/08/22 12:07:14;;;;;;;6.20;2.40;;;;;;;25.09;45.84;99746.59;5055697;28;20036;-83
2022/08/22 12:09:54;;;;;;;16.60;4.30;;;;;;;25.41;45.13;99724.16;5053838;28;20542;-82
2022/08/22 12:12:25;;;;;;;4.85;2.38;;;;;;;25.13;45.54;99719.59;5037347;28;20040;-83
2022/08/22 12:15:15;;;;;;;6.68;2.60;;;;;;;24.88;46.47;99725.38;5055287;28;20033;-84
2022/08/22 12:18:12;;;;;;;7.05;2.10;;;;;;;24.72;46.40;99721.50;5040544;28;20502;-83
2022/08/22 12:21:01;;;;;;;7.88;2.85;;;;;;;24.86;46.63;99724.94;5029442;28;20046;-84
2022/08/22 12:23:48;;;;;;;3.92;2.80;;;;;;;25.01;47.22;99726.94;5034683;28;20052;-83
2022/08/22 12:26:34;;;;;;;6.20;3.22;;;;;;;25.29;44.79;99722.31;5035475;28;20055;-84
2022/08/22 12:29:21;;;;;;;7.15;3.13;;;;;;;24.82;45.94;99720.13;5040778;28;20502;-83
2022/08/22 12:32:27;;;;;;;5.53;2.40;;;;;;;24.66;46.47;99719.34;5054853;28;20036;-83
2022/08/22 12:35:17;;;;;;;5.97;2.58;;;;;;;25.24;44.29;99703.09;5055131;28;20037;-83
2022/08/22 12:38:11;;;;;;;9.27;3.35;;;;;;;24.77;45.43;99705.66;5055444;28;20045;-83
2022/08/22 12:40:48;;;;;;;4.40;2.47;;;;;;;24.59;45.50;99701.28;5052645;28;20041;-83
2022/08/22 12:43:40;;;;;;;6.38;2.90;;;;;;;24.57;45.82;99697.25;5055225;28;20099;-84